createdAt,value
2018-08-30T00:00:07.429Z,8.43
2018-08-30T00:02:36.916Z,7.87
2018-08-30T00:05:06.589Z,8.07
2018-08-30T00:07:36.125Z,8.17
2018-08-30T00:10:06.032Z,7.23
2018-08-30T00:12:35.781Z,7.50
2018-08-30T00:15:05.735Z,8.13
2018-08-30T00:17:35.389Z,8.03
2018-08-30T00:20:05.490Z,7.83
2018-08-30T00:22:34.989Z,7.40
2018-08-30T00:25:04.533Z,8.30
2018-08-30T00:27:34.212Z,7.83
2018-08-30T00:30:03.910Z,7.57
2018-08-30T00:32:33.490Z,7.47
2018-08-30T00:35:03.452Z,7.90
2018-08-30T00:37:33.050Z,7.33
2018-08-30T00:40:02.806Z,6.97
2018-08-30T00:42:33.169Z,7.57
2018-08-30T00:45:02.789Z,7.73
2018-08-30T00:47:32.415Z,6.97
2018-08-30T00:50:02.612Z,6.63
2018-08-30T00:52:32.270Z,6.90
2018-08-30T00:55:02.469Z,6.90
2018-08-30T00:57:31.889Z,6.73
2018-08-30T01:00:02.030Z,6.40
2018-08-30T01:02:31.549Z,6.10
2018-08-30T01:05:01.145Z,5.83
2018-08-30T01:07:30.655Z,5.27
2018-08-30T01:10:00.269Z,5.30
2018-08-30T01:12:29.950Z,4.30
2018-08-30T01:14:59.869Z,4.30
2018-08-30T01:17:29.680Z,4.07
2018-08-30T01:19:59.549Z,3.53
2018-08-30T01:22:29.330Z,3.60
2018-08-30T01:24:59.352Z,4.00
2018-08-30T01:27:28.969Z,3.90
2018-08-30T01:29:59.129Z,4.30
2018-08-30T01:32:28.809Z,4.40
2018-08-30T01:34:58.465Z,3.70
2018-08-30T01:37:28.070Z,4.37
2018-08-30T01:39:57.709Z,3.80
2018-08-30T01:42:27.369Z,3.63
2018-08-30T01:44:57.031Z,3.73
2018-08-30T01:47:26.788Z,3.30
2018-08-30T01:49:56.849Z,3.83
2018-08-30T01:52:26.529Z,3.80
2018-08-30T01:54:56.109Z,3.30
2018-08-30T01:57:25.569Z,3.10
2018-08-30T01:59:55.390Z,3.53
2018-08-30T02:02:25.190Z,3.37
2018-08-30T02:04:54.692Z,3.20
2018-08-30T02:07:24.725Z,3.50
2018-08-30T02:09:54.275Z,3.13
2018-08-30T02:12:23.810Z,3.07
2018-08-30T02:14:53.260Z,2.77
2018-08-30T02:17:22.749Z,3.20
2018-08-30T02:19:52.163Z,3.20
2018-08-30T02:22:21.977Z,3.33
2018-08-30T02:24:51.889Z,3.10
2018-08-30T02:27:21.629Z,3.23
2018-08-30T02:29:51.189Z,3.33
2018-08-30T02:32:20.873Z,2.97
2018-08-30T02:34:50.570Z,3.13
2018-08-30T02:37:20.172Z,3.20
2018-08-30T02:39:49.629Z,3.10
2018-08-30T02:42:19.570Z,2.83
2018-08-30T02:44:49.124Z,3.10
2018-08-30T02:47:18.592Z,3.10
2018-08-30T02:49:48.209Z,2.80
2018-08-30T02:52:18.170Z,3.37
2018-08-30T02:54:47.750Z,3.30
2018-08-30T02:57:17.349Z,3.20
2018-08-30T02:59:46.930Z,3.60
2018-08-30T03:02:16.494Z,3.30
2018-08-30T03:04:46.010Z,2.70
2018-08-30T03:07:15.441Z,3.13
2018-08-30T03:09:45.509Z,3.30
2018-08-30T03:12:14.969Z,3.00
2018-08-30T03:14:49.929Z,3.20
2018-08-30T03:17:19.410Z,3.43
2018-08-30T03:19:49.149Z,3.40
2018-08-30T03:22:19.010Z,3.10
2018-08-30T03:24:48.569Z,3.10
2018-08-30T03:27:18.049Z,3.17
2018-08-30T03:29:48.189Z,3.33
2018-08-30T03:32:17.809Z,3.20
2018-08-30T03:34:47.371Z,3.53
2018-08-30T03:37:16.893Z,3.27
2018-08-30T03:39:46.509Z,3.63
2018-08-30T03:42:16.270Z,3.20
2018-08-30T03:44:45.925Z,3.37
2018-08-30T03:47:15.409Z,3.77
2018-08-30T03:49:44.949Z,3.57
2018-08-30T03:52:14.591Z,4.30
2018-08-30T03:54:44.089Z,3.10
2018-08-30T03:57:13.789Z,3.80
2018-08-30T03:59:43.525Z,3.33
2018-08-30T04:02:13.189Z,3.80
2018-08-30T04:04:42.829Z,3.47
2018-08-30T04:07:12.549Z,3.40
2018-08-30T04:09:42.330Z,3.67
2018-08-30T04:12:11.869Z,3.27
2018-08-30T04:14:41.470Z,3.60
2018-08-30T04:17:11.090Z,5.20
2018-08-30T04:19:40.709Z,3.50
2018-08-30T04:22:10.848Z,3.60
2018-08-30T04:24:40.329Z,3.80
2018-08-30T04:27:10.092Z,3.70
2018-08-30T04:29:39.489Z,3.60
2018-08-30T04:32:09.129Z,5.53
2018-08-30T04:34:38.709Z,3.53
2018-08-30T04:37:08.329Z,3.70
2018-08-30T04:39:37.917Z,3.77
2018-08-30T04:42:07.810Z,3.57
2018-08-30T04:44:37.190Z,4.00
2018-08-30T04:47:06.852Z,3.93
2018-08-30T04:49:36.509Z,3.40
2018-08-30T04:52:06.112Z,3.57
2018-08-30T04:54:35.675Z,3.67
2018-08-30T04:57:05.490Z,3.53
2018-08-30T04:59:35.169Z,3.90
2018-08-30T05:02:05.249Z,4.03
2018-08-30T05:04:34.973Z,3.83
2018-08-30T05:07:04.516Z,3.40
2018-08-30T05:09:34.057Z,3.90
2018-08-30T05:12:03.645Z,3.50
2018-08-30T05:14:33.256Z,3.23
2018-08-30T05:17:03.577Z,3.30
2018-08-30T05:19:33.136Z,3.27
2018-08-30T05:22:02.677Z,3.30
2018-08-30T05:24:32.939Z,3.60
2018-08-30T05:27:02.837Z,3.23
2018-08-30T05:29:32.414Z,3.40
2018-08-30T05:32:02.077Z,3.60
2018-08-30T05:34:31.677Z,3.53
2018-08-30T05:37:01.218Z,3.57
2018-08-30T05:39:30.856Z,3.40
2018-08-30T05:42:00.436Z,3.37
2018-08-30T05:44:30.091Z,3.47
2018-08-30T05:46:59.757Z,3.60
2018-08-30T05:49:29.278Z,3.50
2018-08-30T05:51:58.816Z,3.57
2018-08-30T05:54:28.416Z,3.67
2018-08-30T05:56:58.177Z,3.37
2018-08-30T05:59:27.596Z,3.17
2018-08-30T06:01:57.237Z,3.10
2018-08-30T06:04:26.989Z,3.40
2018-08-30T06:06:57.136Z,3.60
2018-08-30T06:09:26.677Z,3.67
2018-08-30T06:11:56.336Z,3.57
2018-08-30T06:14:25.798Z,3.13
2018-08-30T06:16:55.714Z,3.03
2018-08-30T06:19:25.297Z,2.70
2018-08-30T06:21:54.893Z,2.40
2018-08-30T06:24:24.857Z,2.97
2018-08-30T06:26:54.502Z,2.60
2018-08-30T06:29:24.113Z,2.77
2018-08-30T06:31:53.656Z,2.20
2018-08-30T06:34:23.816Z,2.57
2018-08-30T06:36:53.398Z,2.57
2018-08-30T06:39:22.893Z,2.10
2018-08-30T06:41:52.477Z,2.40
2018-08-30T06:44:21.977Z,2.67
2018-08-30T06:46:51.519Z,2.00
2018-08-30T06:49:21.411Z,2.07
2018-08-30T06:51:51.019Z,2.10
2018-08-30T06:54:20.633Z,2.30
2018-08-30T06:56:50.237Z,2.03
2018-08-30T06:59:20.136Z,1.73
2018-08-30T07:01:49.677Z,2.17
2018-08-30T07:04:19.355Z,2.10
2018-08-30T07:06:49.357Z,2.03
2018-08-30T07:09:18.856Z,1.97
2018-08-30T07:12:01.638Z,2.40
2018-08-30T07:14:31.221Z,2.40
2018-08-30T07:17:00.797Z,2.27
2018-08-30T07:19:30.393Z,2.13
2018-08-30T07:22:00.397Z,2.17
2018-08-30T07:24:30.017Z,2.50
2018-08-30T07:26:59.877Z,2.10
2018-08-30T07:29:29.497Z,2.20
2018-08-30T07:31:58.977Z,2.20
2018-08-30T07:34:28.658Z,2.33
2018-08-30T07:36:58.236Z,2.43
2018-08-30T07:39:27.857Z,2.40
2018-08-30T07:41:57.437Z,2.00
2018-08-30T07:44:27.056Z,2.30
2018-08-30T07:46:56.497Z,2.60
2018-08-30T07:49:26.157Z,2.50
2018-08-30T07:51:55.677Z,2.20
2018-08-30T07:54:25.361Z,2.70
2018-08-30T07:56:55.257Z,2.43
2018-08-30T07:59:24.837Z,2.50
2018-08-30T08:01:54.297Z,2.30
2018-08-30T08:04:23.803Z,2.20
2018-08-30T08:06:53.436Z,2.70
2018-08-30T08:09:22.936Z,2.37
2018-08-30T08:11:52.567Z,2.23
2018-08-30T08:14:22.098Z,2.60
2018-08-30T08:16:51.656Z,2.33
2018-08-30T08:19:21.197Z,2.67
2018-08-30T08:21:51.820Z,2.67
2018-08-30T08:24:21.356Z,2.57
2018-08-30T08:26:50.856Z,2.40
2018-08-30T08:29:20.497Z,2.70
2018-08-30T08:31:50.417Z,2.40
2018-08-30T08:34:20.099Z,2.77
2018-08-30T08:36:49.956Z,2.50
2018-08-30T08:39:19.616Z,2.60
2018-08-30T08:41:49.336Z,2.73
2018-08-30T08:44:18.858Z,2.60
2018-08-30T08:46:48.464Z,2.20
2018-08-30T08:49:18.136Z,2.57
2018-08-30T08:51:48.176Z,2.47
2018-08-30T08:54:18.117Z,2.60
2018-08-30T08:56:47.963Z,2.73
2018-08-30T08:59:17.619Z,2.40
2018-08-30T09:01:47.196Z,2.87
2018-08-30T09:04:16.663Z,2.30
2018-08-30T09:06:46.219Z,2.57
2018-08-30T09:09:15.797Z,2.30
2018-08-30T09:11:45.436Z,2.50
2018-08-30T09:14:15.075Z,2.47
2018-08-30T09:16:44.617Z,2.83
2018-08-30T09:19:14.076Z,2.80
2018-08-30T09:21:43.758Z,2.63
2018-08-30T09:24:13.236Z,2.73
2018-08-30T09:26:42.818Z,2.77
2018-08-30T09:29:12.596Z,2.40
2018-08-30T09:31:42.416Z,2.60
2018-08-30T09:34:12.509Z,2.83
2018-08-30T09:36:42.093Z,2.80
2018-08-30T09:39:11.693Z,2.50
2018-08-30T09:41:41.233Z,2.50
2018-08-30T09:44:10.913Z,2.50
2018-08-30T09:46:40.500Z,2.67
2018-08-30T09:49:10.214Z,2.40
2018-08-30T09:51:39.736Z,2.40
2018-08-30T09:54:09.853Z,2.90
2018-08-30T09:56:39.404Z,2.60
2018-08-30T09:59:08.953Z,2.70
2018-08-30T10:01:44.014Z,2.73
2018-08-30T10:04:13.573Z,2.70
2018-08-30T10:06:43.633Z,2.87
2018-08-30T10:09:13.193Z,2.60
2018-08-30T10:11:42.693Z,3.13
2018-08-30T10:14:12.393Z,3.37
2018-08-30T10:16:41.853Z,3.17
2018-08-30T10:19:11.633Z,2.87
2018-08-30T10:21:41.685Z,2.93
2018-08-30T10:24:11.233Z,3.30
2018-08-30T10:26:40.813Z,3.20
2018-08-30T10:29:17.025Z,3.37
2018-08-30T10:31:46.573Z,3.80
2018-08-30T10:34:16.213Z,3.70
2018-08-30T10:36:45.880Z,3.40
2018-08-30T10:39:15.516Z,3.63
2018-08-30T10:41:45.098Z,3.40
2018-08-30T10:44:14.725Z,3.77
2018-08-30T10:46:44.333Z,3.40
2018-08-30T10:49:13.837Z,3.10
2018-08-30T10:51:43.413Z,3.80
2018-08-30T10:54:13.233Z,3.83
2018-08-30T10:56:42.874Z,4.40
2018-08-30T10:59:12.454Z,5.27
2018-08-30T11:01:42.733Z,4.93
2018-08-30T11:04:12.641Z,4.90
2018-08-30T11:06:42.593Z,5.97
2018-08-30T11:09:12.174Z,6.70
2018-08-30T11:11:41.656Z,7.53
2018-08-30T11:14:11.253Z,7.17
2018-08-30T11:16:41.793Z,7.23
2018-08-30T11:19:11.392Z,5.07
2018-08-30T11:21:41.095Z,4.97
2018-08-30T11:24:11.212Z,5.47
2018-08-30T11:26:41.332Z,5.27
2018-08-30T11:29:10.953Z,5.23
2018-08-30T11:31:41.021Z,5.53
2018-08-30T11:34:10.893Z,6.07
2018-08-30T11:36:40.513Z,5.70
2018-08-30T11:39:10.713Z,5.20
2018-08-30T11:41:40.875Z,5.67
2018-08-30T11:44:10.512Z,6.00
2018-08-30T11:46:40.113Z,6.20
2018-08-30T11:49:09.672Z,6.23
2018-08-30T11:51:39.892Z,7.63
2018-08-30T11:54:09.594Z,7.43
2018-08-30T11:56:39.355Z,7.77
2018-08-30T11:59:09.533Z,8.70
2018-08-30T12:01:39.172Z,9.57
2018-08-30T12:04:10.380Z,10.87
2018-08-30T12:06:40.332Z,10.80
2018-08-30T12:09:11.332Z,10.20
2018-08-30T12:11:41.924Z,10.77
2018-08-30T12:14:11.632Z,9.57
2018-08-30T12:16:41.451Z,9.87
2018-08-30T12:19:11.456Z,9.47
2018-08-30T12:21:41.433Z,10.33
2018-08-30T12:24:11.093Z,11.10
2018-08-30T12:26:40.753Z,11.70
2018-08-30T12:29:10.595Z,11.33
2018-08-30T12:31:40.453Z,11.43
2018-08-30T12:34:10.270Z,10.77
2018-08-30T12:36:39.820Z,11.83
2018-08-30T12:39:12.071Z,11.27
2018-08-30T12:41:42.003Z,11.37
2018-08-30T12:44:11.812Z,11.87
2018-08-30T12:46:41.942Z,12.30
2018-08-30T12:49:11.926Z,13.07
2018-08-30T12:51:41.749Z,11.57
2018-08-30T12:54:11.371Z,10.60
2018-08-30T12:56:41.008Z,12.20
2018-08-30T12:59:22.015Z,9.90
2018-08-30T13:01:52.105Z,11.10
2018-08-30T13:04:21.850Z,11.70
2018-08-30T13:06:55.950Z,11.87
2018-08-30T13:09:27.489Z,12.63
2018-08-30T13:11:58.438Z,11.63
2018-08-30T13:14:28.499Z,12.73
2018-08-30T13:16:58.475Z,11.23
2018-08-30T13:19:28.416Z,11.73
2018-08-30T13:21:57.983Z,10.97
2018-08-30T13:24:27.804Z,11.53
2018-08-30T13:26:57.875Z,10.97
2018-08-30T13:29:27.710Z,10.10
2018-08-30T13:31:57.600Z,10.07
2018-08-30T13:34:27.618Z,9.87
2018-08-30T13:36:57.188Z,9.67
2018-08-30T13:39:26.953Z,9.93
2018-08-30T13:41:56.508Z,11.20
2018-08-30T13:44:26.063Z,11.80
2018-08-30T13:46:55.978Z,11.53
2018-08-30T13:49:25.658Z,12.37
2018-08-30T13:51:55.867Z,12.33
2018-08-30T13:54:25.551Z,11.60
2018-08-30T13:56:55.580Z,11.10
2018-08-30T13:59:25.296Z,11.27
2018-08-30T14:01:54.849Z,11.23
2018-08-30T14:04:24.422Z,11.03
2018-08-30T14:06:54.448Z,10.33
2018-08-30T14:09:24.027Z,9.37
2018-08-30T14:11:54.442Z,8.93
2018-08-30T14:14:23.825Z,9.43
2018-08-30T14:16:53.704Z,8.90
2018-08-30T14:19:23.744Z,8.40
2018-08-30T14:21:53.247Z,8.03
2018-08-30T14:24:22.809Z,8.93
2018-08-30T14:26:52.486Z,9.10
2018-08-30T14:29:21.648Z,8.83
2018-08-30T14:31:51.036Z,9.60
2018-08-30T14:34:20.745Z,9.17
2018-08-30T14:36:50.369Z,9.60
2018-08-30T14:39:19.889Z,10.17
2018-08-30T14:41:49.567Z,10.00
2018-08-30T14:44:19.100Z,9.70
2018-08-30T14:46:48.567Z,8.23
2018-08-30T14:49:18.063Z,8.20
2018-08-30T14:51:48.027Z,8.50
2018-08-30T14:54:18.205Z,8.00
2018-08-30T14:56:47.982Z,7.43
2018-08-30T14:59:17.905Z,7.93
2018-08-30T15:01:47.867Z,7.97
2018-08-30T15:04:17.642Z,8.10
2018-08-30T15:06:47.523Z,7.80
2018-08-30T15:09:17.383Z,8.23
2018-08-30T15:11:46.967Z,8.63
2018-08-30T15:14:16.624Z,8.43
2018-08-30T15:16:46.307Z,8.13
2018-08-30T15:19:15.933Z,8.17
2018-08-30T15:21:45.765Z,8.53
2018-08-30T15:24:15.444Z,8.57
2018-08-30T15:26:45.093Z,7.90
2018-08-30T15:29:14.759Z,8.50
2018-08-30T15:31:44.373Z,8.33
2018-08-30T15:34:13.979Z,7.80
2018-08-30T15:36:58.364Z,7.60
2018-08-30T15:39:28.225Z,7.13
2018-08-30T15:41:58.244Z,7.97
2018-08-30T15:44:28.084Z,6.90
2018-08-30T15:46:57.750Z,7.43
2018-08-30T15:49:28.083Z,6.10
2018-08-30T15:51:58.044Z,6.37
2018-08-30T15:54:27.607Z,5.70
2018-08-30T15:56:57.453Z,15.73
2018-08-30T15:59:27.152Z,6.03
2018-08-30T16:01:56.720Z,6.27
2018-08-30T16:04:26.311Z,5.53
2018-08-30T16:06:56.187Z,6.37
2018-08-30T16:09:25.690Z,6.00
2018-08-30T16:11:55.650Z,5.90
2018-08-30T16:14:25.690Z,5.63
2018-08-30T16:16:55.470Z,6.20
2018-08-30T16:19:25.131Z,5.63
2018-08-30T16:21:54.733Z,5.93
2018-08-30T16:24:24.715Z,6.60
2018-08-30T16:26:54.430Z,216.90
2018-08-30T16:29:24.198Z,279.43
2018-08-30T16:31:53.770Z,76.53
2018-08-30T16:34:23.867Z,63.07
2018-08-30T16:36:53.672Z,114.63
2018-08-30T16:39:23.210Z,53.20
2018-08-30T16:41:53.219Z,92.20
2018-08-30T16:44:23.025Z,66.77
2018-08-30T16:46:52.590Z,28.43
2018-08-30T16:49:22.338Z,22.00
2018-08-30T16:51:52.352Z,6.33
2018-08-30T16:54:22.210Z,5.63
2018-08-30T16:56:51.890Z,5.57
2018-08-30T16:59:21.749Z,6.00
2018-08-30T17:01:51.210Z,6.10
2018-08-30T17:04:20.851Z,8.60
2018-08-30T17:06:50.511Z,6.57
2018-08-30T17:09:20.190Z,12.80
2018-08-30T17:11:49.804Z,10.70
2018-08-30T17:14:19.694Z,6.77
2018-08-30T17:16:49.290Z,8.60
2018-08-30T17:19:24.710Z,6.73
2018-08-30T17:21:54.550Z,6.87
2018-08-30T17:24:24.430Z,7.97
2018-08-30T17:26:54.032Z,7.47
2018-08-30T17:29:23.990Z,6.80
2018-08-30T17:31:54.024Z,7.77
2018-08-30T17:34:23.550Z,6.77
2018-08-30T17:36:53.193Z,18.80
2018-08-30T17:39:22.915Z,12.63
2018-08-30T17:41:52.616Z,24.73
2018-08-30T17:44:22.251Z,74.57
2018-08-30T17:46:51.900Z,7.00
2018-08-30T17:49:21.511Z,7.50
2018-08-30T17:51:51.181Z,8.13
2018-08-30T17:54:21.524Z,7.97
2018-08-30T17:56:51.030Z,7.27
2018-08-30T17:59:20.600Z,7.67
2018-08-30T18:01:50.476Z,29.87
2018-08-30T18:04:20.048Z,33.70
2018-08-30T18:06:49.717Z,11.07
2018-08-30T18:09:19.692Z,109.07
2018-08-30T18:11:49.198Z,115.67
2018-08-30T18:14:18.781Z,43.57
2018-08-30T18:16:48.295Z,11.53
2018-08-30T18:19:18.014Z,7.77
2018-08-30T18:21:47.620Z,13.03
2018-08-30T18:24:17.260Z,10.07
2018-08-30T18:26:47.114Z,8.90
2018-08-30T18:29:16.774Z,45.53
2018-08-30T18:31:46.297Z,59.47
2018-08-30T18:34:15.975Z,37.47
2018-08-30T18:36:45.414Z,29.57
2018-08-30T18:39:15.050Z,34.60
2018-08-30T18:41:44.734Z,27.67
2018-08-30T18:44:14.774Z,8.80
2018-08-30T18:46:44.594Z,8.53
2018-08-30T18:49:14.595Z,8.23
2018-08-30T18:51:44.174Z,8.73
2018-08-30T18:54:13.998Z,8.30
2018-08-30T18:56:43.999Z,8.40
2018-08-30T18:59:13.770Z,19.20
2018-08-30T19:01:43.647Z,11.60
2018-08-30T19:04:13.217Z,18.90
2018-08-30T19:06:43.176Z,20.27
2018-08-30T19:09:13.100Z,15.27
2018-08-30T19:11:42.999Z,17.97
2018-08-30T19:14:12.537Z,21.17
2018-08-30T19:16:47.857Z,12.33
2018-08-30T19:19:19.802Z,16.33
2018-08-30T19:21:49.397Z,10.43
2018-08-30T19:26:28.137Z,17.57
2018-08-30T19:28:57.697Z,16.90
2018-08-30T19:31:27.251Z,12.37
2018-08-30T19:33:56.839Z,11.00
2018-08-30T19:36:30.998Z,9.80
2018-08-30T19:39:01.438Z,8.97
2018-08-30T19:41:31.160Z,9.27
2018-08-30T19:44:00.978Z,9.70
2018-08-30T19:46:30.797Z,9.33
2018-08-30T19:49:00.437Z,9.23
2018-08-30T19:51:30.077Z,10.03
2018-08-30T19:53:59.687Z,12.30
2018-08-30T19:56:29.498Z,11.90
2018-08-30T19:58:59.338Z,11.43
2018-08-30T20:01:28.957Z,10.90
2018-08-30T20:03:58.478Z,10.80
2018-08-30T20:06:28.436Z,9.67
2018-08-30T20:08:57.947Z,11.43
2018-08-30T20:11:27.562Z,10.27
2018-08-30T20:13:57.138Z,9.77
2018-08-30T20:16:27.217Z,9.80
2018-08-30T20:18:56.737Z,9.27
2018-08-30T20:21:26.664Z,8.97
2018-08-30T20:23:56.557Z,8.87
2018-08-30T20:26:26.543Z,9.07
2018-08-30T20:28:56.132Z,8.87
2018-08-30T20:31:26.018Z,9.77
2018-08-30T20:33:55.638Z,9.40
2018-08-30T20:36:25.204Z,9.70
2018-08-30T20:38:54.776Z,9.30
2018-08-30T20:41:24.297Z,9.57
2018-08-30T20:44:00.476Z,9.73
2018-08-30T20:46:30.204Z,10.20
2018-08-30T20:49:00.357Z,10.30
2018-08-30T20:51:29.916Z,9.57
2018-08-30T20:53:59.736Z,9.83
2018-08-30T20:56:29.856Z,10.17
2018-08-30T20:58:59.417Z,9.80
2018-08-30T21:01:29.377Z,9.43
2018-08-30T21:03:58.941Z,9.97
2018-08-30T21:06:28.672Z,10.33
2018-08-30T21:08:58.471Z,10.27
2018-08-30T21:11:27.984Z,9.47
2018-08-30T21:13:57.612Z,9.97
2018-08-30T21:16:27.253Z,9.63
2018-08-30T21:18:57.032Z,10.23
2018-08-30T21:21:26.692Z,9.83
2018-08-30T21:23:56.292Z,9.60
2018-08-30T21:26:25.839Z,9.97
2018-08-30T21:28:55.794Z,10.40
2018-08-30T21:31:25.851Z,9.83
2018-08-30T21:33:55.534Z,10.37
2018-08-30T21:36:25.312Z,10.40
2018-08-30T21:38:55.071Z,10.17
2018-08-30T21:41:24.773Z,10.40
2018-08-30T21:43:54.612Z,10.50
2018-08-30T21:46:24.775Z,10.20
2018-08-30T21:48:54.632Z,9.90
2018-08-30T21:51:24.212Z,10.63
2018-08-30T21:53:54.228Z,10.67
2018-08-30T21:56:23.751Z,10.50
2018-08-30T21:58:53.331Z,11.27
2018-08-30T22:01:23.611Z,10.27
2018-08-30T22:03:53.191Z,9.97
2018-08-30T22:06:23.079Z,10.73
2018-08-30T22:08:52.931Z,11.17
2018-08-30T22:11:22.631Z,10.87
2018-08-30T22:13:52.271Z,10.70
2018-08-30T22:16:22.031Z,11.10
2018-08-30T22:18:51.711Z,10.50
2018-08-30T22:21:21.671Z,10.90
2018-08-30T22:23:51.532Z,11.20
2018-08-30T22:26:21.189Z,10.23
2018-08-30T22:28:50.712Z,11.30
2018-08-30T22:31:20.331Z,10.40
2018-08-30T22:33:49.859Z,10.33
2018-08-30T22:36:19.471Z,10.00
2018-08-30T22:38:49.031Z,10.33
2018-08-30T22:41:18.531Z,10.10
2018-08-30T22:43:48.091Z,10.60
2018-08-30T22:46:17.851Z,10.50
2018-08-30T22:48:47.692Z,10.13
2018-08-30T22:51:17.272Z,13.30
2018-08-30T22:53:46.855Z,14.37
2018-08-30T22:56:16.471Z,16.23
2018-08-30T22:58:46.011Z,15.87
2018-08-30T23:01:15.651Z,15.00
2018-08-30T23:03:45.291Z,16.30
2018-08-30T23:06:14.911Z,15.80
2018-08-30T23:08:44.431Z,16.30
2018-08-30T23:11:14.011Z,13.63
2018-08-30T23:13:43.771Z,13.77
2018-08-30T23:16:13.711Z,13.67
2018-08-30T23:18:43.511Z,13.47
2018-08-30T23:21:13.660Z,13.67
2018-08-30T23:23:43.491Z,14.63
2018-08-30T23:26:13.432Z,14.93
2018-08-30T23:28:43.031Z,14.57
2018-08-30T23:31:12.931Z,14.70
2018-08-30T23:33:42.515Z,13.67
2018-08-30T23:36:12.131Z,16.80
2018-08-30T23:38:41.751Z,15.53
2018-08-30T23:41:11.331Z,13.73
2018-08-30T23:43:40.842Z,13.17
2018-08-30T23:46:10.349Z,14.70
2018-08-30T23:48:39.991Z,15.40
2018-08-30T23:51:09.654Z,14.77
2018-08-30T23:53:39.335Z,17.43
2018-08-30T23:56:09.231Z,17.63
